createdAt,value
2023-05-30T00:01:20.079Z,18.90
2023-05-30T00:03:48.665Z,18.90
2023-05-30T00:06:17.409Z,18.90
2023-05-30T00:08:46.075Z,19.00
2023-05-30T00:11:15.147Z,18.90
2023-05-30T00:13:44.713Z,18.90
2023-05-30T00:16:13.274Z,18.90
2023-05-30T00:18:41.754Z,18.90
2023-05-30T00:21:11.719Z,18.90
2023-05-30T00:23:40.341Z,18.90
2023-05-30T00:26:10.026Z,18.90
2023-05-30T00:28:38.400Z,18.90
2023-05-30T00:31:07.796Z,18.90
2023-05-30T00:33:36.099Z,18.90
2023-05-30T00:36:04.219Z,18.90
2023-05-30T00:38:32.101Z,18.80
2023-05-30T00:41:00.322Z,18.80
2023-05-30T00:43:28.305Z,18.80
2023-05-30T00:45:57.084Z,18.80
2023-05-30T00:48:28.183Z,18.80
2023-05-30T00:50:56.933Z,18.80
2023-05-30T00:53:25.574Z,18.70
2023-05-30T00:55:54.139Z,18.70
2023-05-30T00:58:23.103Z,18.70
2023-05-30T01:00:51.215Z,18.60
2023-05-30T01:03:23.459Z,18.60
2023-05-30T01:05:53.003Z,18.60
2023-05-30T01:08:21.721Z,18.50
2023-05-30T01:10:55.335Z,18.50
2023-05-30T01:13:29.507Z,18.50
2023-05-30T01:16:04.099Z,18.50
2023-05-30T01:18:36.068Z,18.50
2023-05-30T01:21:12.337Z,18.40
2023-05-30T01:23:54.493Z,18.40
2023-05-30T01:26:34.249Z,18.30
2023-05-30T01:29:05.920Z,18.30
2023-05-30T01:31:35.028Z,18.30
2023-05-30T01:34:04.000Z,18.30
2023-05-30T01:36:32.115Z,18.20
2023-05-30T01:39:00.107Z,18.20
2023-05-30T01:41:35.776Z,18.20
2023-05-30T01:44:11.287Z,18.20
2023-05-30T01:46:46.690Z,18.20
2023-05-30T01:49:20.598Z,18.20
2023-05-30T01:51:53.501Z,18.20
2023-05-30T01:54:23.204Z,18.10
2023-05-30T01:56:55.796Z,18.10
2023-05-30T01:59:26.065Z,18.10
2023-05-30T02:01:55.926Z,18.10
2023-05-30T02:04:25.537Z,18.00
2023-05-30T02:06:53.470Z,18.00
2023-05-30T02:09:21.467Z,18.00
2023-05-30T02:11:49.649Z,18.00
2023-05-30T02:14:17.675Z,18.00
2023-05-30T02:16:47.067Z,17.90
2023-05-30T02:19:15.699Z,17.90
2023-05-30T02:21:43.903Z,17.90
2023-05-30T02:24:11.950Z,17.90
2023-05-30T02:26:39.941Z,17.90
2023-05-30T02:29:07.845Z,17.80
2023-05-30T02:31:35.771Z,17.80
2023-05-30T02:34:05.095Z,17.80
2023-05-30T02:36:33.910Z,17.80
2023-05-30T02:39:07.645Z,17.80
2023-05-30T02:41:37.670Z,17.70
2023-05-30T02:44:05.816Z,17.70
2023-05-30T02:46:34.547Z,17.70
2023-05-30T02:49:04.554Z,17.70
2023-05-30T02:51:32.565Z,17.60
2023-05-30T02:54:00.591Z,17.60
2023-05-30T02:56:30.116Z,17.60
2023-05-30T02:58:59.289Z,17.60
2023-05-30T03:01:27.265Z,17.60
2023-05-30T03:03:55.218Z,17.60
2023-05-30T03:06:25.405Z,17.60
2023-05-30T03:08:58.427Z,17.50
2023-05-30T03:11:27.071Z,17.50
2023-05-30T03:13:55.282Z,17.50
2023-05-30T03:16:23.402Z,17.40
2023-05-30T03:18:51.827Z,17.40
2023-05-30T03:21:19.825Z,17.40
2023-05-30T03:23:50.402Z,17.40
2023-05-30T03:26:18.327Z,17.40
2023-05-30T03:28:46.302Z,17.40
2023-05-30T03:31:14.268Z,17.30
2023-05-30T03:33:42.190Z,17.20
2023-05-30T03:36:11.588Z,17.20
2023-05-30T03:38:40.091Z,17.10
2023-05-30T03:41:09.322Z,17.00
2023-05-30T03:43:37.266Z,17.00
2023-05-30T03:46:05.568Z,16.90
2023-05-30T03:48:33.518Z,16.90
2023-05-30T03:51:01.457Z,16.80
2023-05-30T03:53:29.350Z,16.80
2023-05-30T03:55:57.314Z,16.80
2023-05-30T03:58:26.606Z,16.80
2023-05-30T04:00:54.523Z,16.70
2023-05-30T04:03:22.620Z,16.70
2023-05-30T04:05:51.010Z,16.70
2023-05-30T04:08:18.911Z,16.60
2023-05-30T04:10:46.907Z,16.60
2023-05-30T04:13:14.782Z,16.60
2023-05-30T04:15:44.254Z,16.60
2023-05-30T04:18:12.368Z,16.50
2023-05-30T04:20:40.349Z,16.40
2023-05-30T04:23:08.350Z,16.40
2023-05-30T04:25:36.607Z,16.40
2023-05-30T04:28:06.747Z,16.40
2023-05-30T04:30:35.358Z,16.50
2023-05-30T04:33:05.527Z,16.50
2023-05-30T04:35:34.461Z,16.50
2023-05-30T04:38:02.542Z,16.40
2023-05-30T04:40:30.414Z,16.40
2023-05-30T04:42:59.869Z,16.30
2023-05-30T04:45:30.209Z,16.30
2023-05-30T04:47:58.587Z,16.40
2023-05-30T04:50:27.990Z,16.40
2023-05-30T04:52:55.924Z,16.40
2023-05-30T04:55:24.522Z,16.40
2023-05-30T04:57:52.427Z,16.40
2023-05-30T05:00:22.025Z,16.50
2023-05-30T05:02:50.038Z,16.50
2023-05-30T05:05:17.930Z,16.60
2023-05-30T05:07:47.257Z,16.60
2023-05-30T05:10:15.175Z,16.70
2023-05-30T05:12:43.111Z,16.70
2023-05-30T05:15:12.164Z,16.70
2023-05-30T05:17:40.207Z,16.70
2023-05-30T05:20:11.990Z,16.80
2023-05-30T05:22:40.933Z,16.80
2023-05-30T05:25:11.402Z,16.90
2023-05-30T05:27:40.919Z,16.90
2023-05-30T05:30:11.649Z,17.00
2023-05-30T05:32:40.009Z,17.10
2023-05-30T05:35:09.732Z,17.10
2023-05-30T05:37:37.638Z,17.20
2023-05-30T05:40:07.757Z,17.30
2023-05-30T05:42:38.293Z,17.30
2023-05-30T05:45:07.218Z,17.40
2023-05-30T05:47:35.109Z,17.50
2023-05-30T05:50:03.250Z,17.50
2023-05-30T05:52:31.246Z,17.60
2023-05-30T05:54:59.177Z,17.60
2023-05-30T05:57:27.134Z,17.60
2023-05-30T05:59:56.416Z,17.70
2023-05-30T06:02:24.522Z,17.70
2023-05-30T06:04:52.478Z,17.70
2023-05-30T06:07:20.414Z,17.70
2023-05-30T06:09:48.296Z,17.80
2023-05-30T06:12:16.311Z,17.90
2023-05-30T06:14:44.205Z,17.90
2023-05-30T06:17:13.529Z,18.00
2023-05-30T06:19:41.461Z,18.00
2023-05-30T06:22:09.997Z,18.10
2023-05-30T06:24:39.012Z,18.10
2023-05-30T06:27:07.656Z,18.10
2023-05-30T06:29:36.726Z,18.20
2023-05-30T06:32:15.554Z,18.20
2023-05-30T06:34:47.035Z,18.20
2023-05-30T06:37:15.169Z,18.30
2023-05-30T06:39:43.618Z,18.30
2023-05-30T06:42:13.088Z,18.40
2023-05-30T06:44:41.035Z,18.40
2023-05-30T06:47:09.464Z,18.50
2023-05-30T06:49:37.423Z,18.50
2023-05-30T06:52:07.459Z,18.50
2023-05-30T06:54:35.476Z,18.60
2023-05-30T06:57:05.714Z,18.70
2023-05-30T06:59:34.919Z,18.80
2023-05-30T07:02:03.581Z,18.90
2023-05-30T07:04:31.716Z,18.90
2023-05-30T07:06:59.760Z,18.90
2023-05-30T07:09:29.111Z,19.00
2023-05-30T07:11:57.180Z,19.00
2023-05-30T07:14:25.553Z,19.10
2023-05-30T07:16:53.502Z,19.10
2023-05-30T07:19:21.480Z,19.10
2023-05-30T07:21:49.343Z,19.10
2023-05-30T07:24:17.285Z,19.20
2023-05-30T07:26:46.607Z,19.30
2023-05-30T07:29:14.590Z,19.30
2023-05-30T07:31:42.715Z,19.40
2023-05-30T07:34:10.687Z,19.40
2023-05-30T07:36:38.567Z,19.50
2023-05-30T07:39:06.536Z,19.60
2023-05-30T07:41:34.518Z,19.70
2023-05-30T07:44:03.871Z,19.70
2023-05-30T07:46:31.883Z,19.70
2023-05-30T07:48:59.925Z,19.70
2023-05-30T07:51:27.925Z,19.80
2023-05-30T07:53:55.992Z,19.90
2023-05-30T07:56:23.923Z,20.00
2023-05-30T07:58:51.879Z,20.10
2023-05-30T08:01:21.196Z,20.20
2023-05-30T08:03:49.291Z,20.20
2023-05-30T08:06:20.198Z,20.20
2023-05-30T08:08:48.339Z,20.30
2023-05-30T08:11:16.245Z,20.30
2023-05-30T08:13:45.048Z,20.30
2023-05-30T08:16:13.165Z,20.30
2023-05-30T08:18:42.941Z,20.40
2023-05-30T08:21:10.973Z,20.40
2023-05-30T08:23:39.755Z,20.50
2023-05-30T08:26:07.919Z,20.60
2023-05-30T08:28:36.279Z,20.60
2023-05-30T08:31:04.391Z,20.70
2023-05-30T08:33:33.450Z,20.80
2023-05-30T08:36:03.132Z,21.00
2023-05-30T08:38:31.175Z,21.10
2023-05-30T08:40:59.409Z,21.20
2023-05-30T08:43:27.889Z,21.30
2023-05-30T08:45:56.679Z,21.40
2023-05-30T08:48:26.588Z,21.40
2023-05-30T08:50:55.355Z,21.40
2023-05-30T08:53:32.078Z,21.50
2023-05-30T08:56:04.363Z,21.50
2023-05-30T08:58:36.316Z,21.60
2023-05-30T09:01:04.714Z,21.50
2023-05-30T09:03:33.537Z,21.50
2023-05-30T09:06:02.936Z,21.40
2023-05-30T09:08:32.480Z,21.40
2023-05-30T09:11:01.329Z,21.50
2023-05-30T09:13:29.355Z,21.60
2023-05-30T09:15:57.262Z,21.60
2023-05-30T09:18:25.148Z,21.70
2023-05-30T09:20:53.958Z,21.80
2023-05-30T09:23:22.259Z,21.80
2023-05-30T09:25:56.299Z,21.90
2023-05-30T09:28:26.885Z,22.00
2023-05-30T09:30:59.957Z,22.10
2023-05-30T09:33:44.441Z,22.00
2023-05-30T09:36:17.112Z,22.10
2023-05-30T09:38:54.844Z,22.10
2023-05-30T09:41:24.388Z,22.10
2023-05-30T09:43:54.988Z,22.20
2023-05-30T09:46:23.894Z,22.20
2023-05-30T09:48:52.545Z,22.30
2023-05-30T09:51:21.929Z,22.30
2023-05-30T09:54:02.719Z,22.30
2023-05-30T09:56:37.221Z,22.40
2023-05-30T09:59:08.214Z,22.30
2023-05-30T10:01:41.203Z,22.40
2023-05-30T10:04:16.017Z,22.40
2023-05-30T10:06:46.199Z,22.40
2023-05-30T10:09:15.299Z,22.50
2023-05-30T10:11:46.010Z,22.50
2023-05-30T10:14:14.667Z,22.60
2023-05-30T10:16:49.520Z,22.60
2023-05-30T10:19:20.635Z,22.70
2023-05-30T10:21:50.344Z,22.70
2023-05-30T10:24:22.490Z,22.80
2023-05-30T10:26:57.054Z,22.80
2023-05-30T10:29:29.727Z,22.80
2023-05-30T10:32:01.728Z,22.90
2023-05-30T10:34:36.675Z,22.90
2023-05-30T10:37:05.101Z,23.00
2023-05-30T10:39:37.331Z,23.10
2023-05-30T10:42:13.879Z,23.20
2023-05-30T10:44:56.968Z,23.20
2023-05-30T10:47:45.042Z,23.30
2023-05-30T10:50:20.572Z,23.30
2023-05-30T10:52:49.077Z,23.40
2023-05-30T10:55:17.270Z,23.40
2023-05-30T10:57:46.623Z,23.40
2023-05-30T11:00:24.357Z,23.50
2023-05-30T11:02:56.728Z,23.60
2023-05-30T11:05:31.218Z,23.70
2023-05-30T11:08:01.034Z,23.70
2023-05-30T11:10:30.891Z,23.70
2023-05-30T11:13:11.577Z,23.80
2023-05-30T11:15:46.908Z,23.70
2023-05-30T11:18:19.029Z,23.80
2023-05-30T11:20:54.803Z,23.90
2023-05-30T11:23:25.253Z,24.20
2023-05-30T11:25:58.159Z,24.30
2023-05-30T11:28:38.185Z,24.50
2023-05-30T11:31:20.470Z,24.60
2023-05-30T11:33:49.889Z,24.80
2023-05-30T11:36:17.875Z,24.90
2023-05-30T11:38:46.960Z,25.00
2023-05-30T11:41:16.351Z,25.10
2023-05-30T11:43:46.319Z,25.10
2023-05-30T11:46:15.063Z,25.10
2023-05-30T11:48:44.485Z,25.20
2023-05-30T11:51:12.796Z,25.10
2023-05-30T11:53:40.758Z,25.00
2023-05-30T11:56:10.035Z,24.90
2023-05-30T11:58:38.085Z,24.80
2023-05-30T12:01:08.100Z,24.80
2023-05-30T12:03:36.177Z,24.70
2023-05-30T12:06:13.396Z,24.70
2023-05-30T12:08:42.628Z,24.70
2023-05-30T12:11:12.487Z,24.60
2023-05-30T12:13:40.699Z,24.60
2023-05-30T12:16:12.357Z,24.60
2023-05-30T12:18:40.974Z,24.50
2023-05-30T12:21:12.112Z,24.40
2023-05-30T12:23:44.009Z,24.40
2023-05-30T12:26:18.658Z,24.40
2023-05-30T12:28:47.324Z,24.40
2023-05-30T12:31:24.604Z,24.50
2023-05-30T12:33:52.638Z,24.50
2023-05-30T12:36:29.450Z,24.50
2023-05-30T12:38:59.575Z,24.50
2023-05-30T12:41:31.776Z,24.50
2023-05-30T12:44:00.095Z,24.50
2023-05-30T12:46:29.601Z,24.60
2023-05-30T12:48:57.626Z,24.60
2023-05-30T12:51:25.624Z,24.70
2023-05-30T12:53:54.560Z,24.80
2023-05-30T12:56:24.811Z,24.90
2023-05-30T12:58:52.734Z,24.90
2023-05-30T13:01:20.823Z,24.90
2023-05-30T13:03:50.635Z,24.90
2023-05-30T13:06:18.782Z,24.90
2023-05-30T13:08:46.706Z,24.90
2023-05-30T13:11:14.729Z,25.00
2023-05-30T13:13:42.728Z,25.00
2023-05-30T13:16:10.859Z,25.00
2023-05-30T13:18:39.110Z,25.10
2023-05-30T13:21:08.734Z,25.10
2023-05-30T13:23:36.891Z,25.10
2023-05-30T13:26:05.189Z,25.10
2023-05-30T13:28:35.101Z,25.20
2023-05-30T13:31:05.243Z,25.20
2023-05-30T13:33:34.201Z,25.20
2023-05-30T13:36:02.173Z,25.10
2023-05-30T13:38:31.709Z,25.10
2023-05-30T13:41:00.037Z,25.10
2023-05-30T13:43:28.396Z,25.10
2023-05-30T13:45:56.465Z,25.00
2023-05-30T13:48:24.487Z,25.00
2023-05-30T13:50:52.650Z,25.00
2023-05-30T13:53:29.804Z,25.00
2023-05-30T13:56:00.007Z,25.00
2023-05-30T13:58:27.993Z,25.00
2023-05-30T14:00:55.993Z,25.00
2023-05-30T14:03:24.063Z,24.90
2023-05-30T14:05:52.173Z,25.00
2023-05-30T14:08:20.807Z,25.00
2023-05-30T14:10:49.516Z,24.90
2023-05-30T14:13:18.930Z,24.90
2023-05-30T14:15:47.100Z,24.80
2023-05-30T14:18:15.080Z,24.80
2023-05-30T14:20:43.089Z,24.70
2023-05-30T14:23:12.491Z,24.60
2023-05-30T14:25:40.567Z,24.60
2023-05-30T14:28:08.566Z,24.50
2023-05-30T14:30:39.099Z,24.50
2023-05-30T14:33:07.294Z,24.50
2023-05-30T14:35:35.257Z,24.50
2023-05-30T14:38:03.823Z,24.50
2023-05-30T14:40:32.051Z,24.50
2023-05-30T14:43:00.009Z,24.50
2023-05-30T14:45:28.393Z,24.50
2023-05-30T14:47:58.525Z,24.50
2023-05-30T14:50:27.900Z,24.40
2023-05-30T14:52:55.884Z,24.50
2023-05-30T14:55:23.929Z,24.50
2023-05-30T14:57:52.738Z,24.50
2023-05-30T15:00:20.937Z,24.50
2023-05-30T15:02:49.137Z,24.50
2023-05-30T15:05:18.676Z,24.40
2023-05-30T15:07:47.702Z,24.30
2023-05-30T15:10:16.010Z,24.30
2023-05-30T15:12:46.043Z,24.30
2023-05-30T15:15:14.191Z,24.30
2023-05-30T15:17:42.480Z,24.30
2023-05-30T15:20:11.233Z,24.20
2023-05-30T15:22:41.287Z,24.20
2023-05-30T15:25:09.971Z,24.20
2023-05-30T15:27:37.906Z,24.20
2023-05-30T15:30:06.692Z,24.20
2023-05-30T15:32:34.723Z,24.20
2023-05-30T15:35:02.708Z,24.20
2023-05-30T15:37:30.733Z,24.10
2023-05-30T15:39:59.998Z,24.10
2023-05-30T15:42:27.984Z,24.10
2023-05-30T15:44:55.870Z,24.00
2023-05-30T15:47:23.840Z,24.00
2023-05-30T15:49:51.744Z,24.00
2023-05-30T15:52:19.679Z,23.90
2023-05-30T15:54:47.669Z,23.90
2023-05-30T15:57:17.024Z,23.90
2023-05-30T15:59:45.068Z,23.80
2023-05-30T16:02:13.029Z,23.80
2023-05-30T16:04:41.808Z,23.80
2023-05-30T16:07:09.862Z,23.80
2023-05-30T16:09:39.550Z,23.80
2023-05-30T16:12:08.634Z,23.80
2023-05-30T16:14:38.207Z,23.80
2023-05-30T16:17:06.770Z,23.80
2023-05-30T16:19:34.934Z,23.80
2023-05-30T16:22:02.898Z,23.70
2023-05-30T16:24:31.235Z,23.70
2023-05-30T16:26:59.297Z,23.70
2023-05-30T16:29:27.170Z,23.70
2023-05-30T16:31:56.494Z,23.70
2023-05-30T16:34:24.433Z,23.60
2023-05-30T16:36:52.433Z,23.60
2023-05-30T16:39:20.878Z,23.60
2023-05-30T16:41:48.848Z,23.50
2023-05-30T16:44:16.819Z,23.50
2023-05-30T16:46:44.798Z,23.50
2023-05-30T16:49:15.889Z,23.50
2023-05-30T16:51:43.936Z,23.50
2023-05-30T16:54:14.192Z,23.50
2023-05-30T16:56:42.594Z,23.40
2023-05-30T16:59:10.536Z,23.40
2023-05-30T17:01:38.480Z,23.40
2023-05-30T17:04:06.559Z,23.40
2023-05-30T17:06:36.701Z,23.30
2023-05-30T17:09:04.674Z,23.30
2023-05-30T17:11:32.600Z,23.30
2023-05-30T17:14:00.732Z,23.30
2023-05-30T17:16:28.667Z,23.20
2023-05-30T17:18:59.419Z,23.20
2023-05-30T17:21:27.470Z,23.20
2023-05-30T17:23:56.859Z,23.10
2023-05-30T17:26:24.886Z,23.10
2023-05-30T17:28:53.241Z,23.10
2023-05-30T17:31:21.502Z,23.10
2023-05-30T17:33:49.515Z,23.10
2023-05-30T17:36:17.560Z,23.00
2023-05-30T17:38:45.458Z,23.00
2023-05-30T17:41:16.112Z,23.00
2023-05-30T17:43:44.018Z,22.90
2023-05-30T17:46:12.184Z,22.90
2023-05-30T17:48:40.196Z,22.90
2023-05-30T17:51:08.140Z,22.80
2023-05-30T17:53:43.811Z,22.80
2023-05-30T17:56:22.460Z,22.80
2023-05-30T17:58:50.904Z,22.80
2023-05-30T18:01:18.888Z,22.70
2023-05-30T18:03:47.428Z,22.70
2023-05-30T18:06:26.539Z,22.60
2023-05-30T18:08:55.772Z,22.60
2023-05-30T18:11:25.213Z,22.60
2023-05-30T18:13:53.198Z,22.60
2023-05-30T18:16:22.311Z,22.50
2023-05-30T18:18:50.308Z,22.50
2023-05-30T18:21:18.548Z,22.40
2023-05-30T18:23:46.489Z,22.40
2023-05-30T18:26:14.986Z,22.40
2023-05-30T18:28:44.475Z,22.30
2023-05-30T18:31:12.422Z,22.30
2023-05-30T18:33:40.391Z,22.30
2023-05-30T18:38:39.875Z,22.20
2023-05-30T18:41:08.006Z,22.20
2023-05-30T18:43:36.138Z,22.10
2023-05-30T18:46:05.437Z,22.10
2023-05-30T18:48:44.401Z,22.10
2023-05-30T18:51:13.523Z,22.00
2023-05-30T18:53:41.679Z,22.00
2023-05-30T18:56:10.494Z,22.00
2023-05-30T18:58:38.411Z,21.90
2023-05-30T19:01:07.884Z,21.90
2023-05-30T19:03:36.166Z,21.80
2023-05-30T19:06:04.275Z,21.80
2023-05-30T19:08:32.143Z,21.70
2023-05-30T19:11:00.174Z,21.70
2023-05-30T19:13:28.152Z,21.60
2023-05-30T19:15:56.089Z,21.50
2023-05-30T19:18:25.947Z,21.40
2023-05-30T19:20:55.992Z,21.30
2023-05-30T19:23:23.976Z,21.20
2023-05-30T19:25:51.889Z,21.20
2023-05-30T19:28:19.919Z,21.00
2023-05-30T19:30:47.892Z,20.90
2023-05-30T19:33:15.865Z,20.90
2023-05-30T19:35:45.244Z,20.80
2023-05-30T19:38:13.485Z,20.60
2023-05-30T19:40:41.529Z,20.50
2023-05-30T19:43:09.946Z,20.50
2023-05-30T19:45:38.165Z,20.40
2023-05-30T19:48:06.366Z,20.40
2023-05-30T19:50:34.335Z,20.30
2023-05-30T19:53:05.190Z,20.30
2023-05-30T19:55:33.461Z,20.30
2023-05-30T19:58:01.479Z,20.20
2023-05-30T20:00:31.244Z,20.20
2023-05-30T20:02:59.289Z,20.10
2023-05-30T20:05:27.250Z,20.10
2023-05-30T20:07:55.151Z,20.00
2023-05-30T20:10:24.567Z,19.90
2023-05-30T20:12:52.506Z,19.90
2023-05-30T20:15:20.451Z,19.80
2023-05-30T20:17:48.495Z,19.80
2023-05-30T20:20:16.556Z,19.70
2023-05-30T20:22:44.540Z,19.70
2023-05-30T20:25:12.516Z,19.60
2023-05-30T20:27:41.864Z,19.60
2023-05-30T20:30:10.408Z,19.60
2023-05-30T20:32:38.370Z,19.60
2023-05-30T20:35:06.988Z,19.60
2023-05-30T20:37:34.996Z,19.60
2023-05-30T20:40:03.515Z,19.60
2023-05-30T20:42:31.445Z,19.60
2023-05-30T20:45:00.790Z,19.60
2023-05-30T20:47:29.404Z,19.60
2023-05-30T20:50:02.743Z,19.60
2023-05-30T20:52:30.818Z,19.60
2023-05-30T20:54:58.829Z,19.60
2023-05-30T20:57:26.834Z,19.60
2023-05-30T20:59:55.387Z,19.60
2023-05-30T21:02:24.911Z,19.50
2023-05-30T21:04:52.858Z,19.50
2023-05-30T21:07:21.124Z,19.50
2023-05-30T21:09:49.020Z,19.50
2023-05-30T21:12:17.007Z,19.40
2023-05-30T21:14:44.987Z,19.40
2023-05-30T21:17:12.957Z,19.40
2023-05-30T21:19:42.258Z,19.30
2023-05-30T21:22:10.249Z,19.30
2023-05-30T21:24:38.401Z,19.30
2023-05-30T21:27:07.170Z,19.30
2023-05-30T21:29:35.196Z,19.30
2023-05-30T21:32:03.167Z,19.30
2023-05-30T21:34:31.740Z,19.30
2023-05-30T21:37:01.048Z,19.30
2023-05-30T21:39:29.333Z,19.30
2023-05-30T21:41:57.290Z,19.30
2023-05-30T21:44:25.286Z,19.30
2023-05-30T21:46:53.208Z,19.30
2023-05-30T21:49:21.207Z,19.30
2023-05-30T21:51:49.153Z,19.30
2023-05-30T21:54:35.687Z,19.30
2023-05-30T21:57:04.511Z,19.30
2023-05-30T21:59:32.429Z,19.30
2023-05-30T22:02:00.753Z,19.30
2023-05-30T22:04:28.773Z,19.30
2023-05-30T22:06:57.744Z,19.30
2023-05-30T22:09:28.780Z,19.20
2023-05-30T22:11:56.920Z,19.20
2023-05-30T22:14:24.835Z,19.10
2023-05-30T22:16:52.866Z,19.00
2023-05-30T22:19:21.354Z,19.00
2023-05-30T22:22:02.055Z,18.90
2023-05-30T22:24:33.566Z,18.90
2023-05-30T22:27:01.645Z,18.90
2023-05-30T22:29:29.663Z,18.80
2023-05-30T22:31:57.696Z,18.80
2023-05-30T22:34:25.797Z,18.70
2023-05-30T22:36:53.905Z,18.70
2023-05-30T22:39:21.922Z,18.60
2023-05-30T22:41:51.276Z,18.60
2023-05-30T22:44:19.277Z,18.50
2023-05-30T22:46:47.362Z,18.40
2023-05-30T22:49:15.400Z,18.40
2023-05-30T22:51:43.500Z,18.40
2023-05-30T22:54:11.424Z,18.30
2023-05-30T22:56:39.344Z,18.30
2023-05-30T22:59:08.685Z,18.20
2023-05-30T23:01:36.633Z,18.20
2023-05-30T23:04:04.665Z,18.20
2023-05-30T23:06:32.726Z,18.20
2023-05-30T23:09:00.765Z,18.20
2023-05-30T23:11:28.982Z,18.20
2023-05-30T23:13:57.123Z,18.20
2023-05-30T23:16:26.780Z,18.20
2023-05-30T23:18:54.758Z,18.10
2023-05-30T23:21:23.520Z,18.10
2023-05-30T23:23:51.448Z,18.10
2023-05-30T23:26:19.469Z,18.10
2023-05-30T23:28:47.426Z,18.10
2023-05-30T23:31:15.403Z,18.10
2023-05-30T23:33:44.744Z,18.00
2023-05-30T23:36:12.717Z,18.00
2023-05-30T23:38:40.887Z,18.00
2023-05-30T23:41:08.844Z,18.10
2023-05-30T23:43:36.811Z,18.10
2023-05-30T23:46:04.737Z,18.10
2023-05-30T23:48:32.614Z,18.10
2023-05-30T23:51:03.916Z,18.10
2023-05-30T23:53:31.958Z,18.10
2023-05-30T23:55:59.859Z,18.10
2023-05-30T23:58:27.808Z,18.10
